Terminal Aerodrome Forecast
Issued by NWS

Home | Current Version | Previous Version | Text Only | Print | Product List | Glossary On
Versions: 1 2 3 4 5 6 7 8 9 10 11 12 13 14 15 16 17 18 19 20 21 22
000
FTUS43 KICT 021100
TAFSLN
TAF
KSLN 021136Z 0212/0312 36008KT P6SM -SHRA VCTS SCT007 OVC012CB
      TEMPO 0212/0214 BKN007CB
     FM021400 34012G22KT P6SM VCSH OVC030
     FM021700 34017G25KT P6SM VCSH OVC030
     FM022300 34009KT P6SM SKC
     FM030600 35012G24KT P6SM BKN100=

USA.gov is the U.S. government's official web portal to all federal, state and local government web resources and services.